Weather at Rivas

Public forecast

Using degrees Celsius for public forecast. Weather courtesy of forecast.io.

Current aviation weather report (METAR) for Rivas

Retrieved 2022/06/25 20:00 UTC (38 minutes ago):

MNRS 252000Z 11004KT 9999 SCT013CB SCT014 29/23 Q1011 CB 4/C

Closest aviation forecast (TAF) to Rivas

Closest forecast is Augusto C. Sandino (Managua) International Airport, 47.0 nm (87.1 km) NNW. Retrieved 2022/06/25 18:50 UTC (2 hours ago):

TAF MNMG 251558Z 2518/2618 11006KT 9999 SCT022 SCT070 FM252200 VRB12KT 7000 VCRA SCT020CB SCT080 FM260500 00000KT 9999 FEW020 BECMG 2616/2621 VRB10KT 7000 -TSRA SCT022CB SCT080